Lynn, Nebraska
Current Conditions -  °F | °C
As of 10:53 AM on Thursday 23 Oct 2014 (Local Time) from KHSI Reporting Station
Moderate Fog Moderate Fog  
Wind Chill: 11°   Ceiling: 200
Heat Index: 11°   Visibility: 0.25mi
Dew Point: 10°   Wind: 6mph
Humidity: 93%   Direction: 160°SSE
Pressure: 30.11"   Gusts: NA
Location:  40.4815°N, 97.9942°W
Report Text: KHSI 231553Z AUTO 16005KT 1/4SM FG VV002 11/10 A3011 RMK AO2 SLP195 T01110100
Loading
Personal Weather Stations






























Interactive Weather Map
Tropical Storm Tracking
New forecast layout! Learn more

10-Day Weather Forecast

Advertisements
Track Severe Weather on mobile